createdAt,value
2019-03-06T00:01:30.349Z,13.37
2019-03-06T00:04:00.583Z,19.67
2019-03-06T00:06:30.343Z,11.70
2019-03-06T00:09:00.255Z,9.50
2019-03-06T00:11:29.826Z,10.03
2019-03-06T00:13:59.452Z,13.27
2019-03-06T00:16:29.124Z,11.70
2019-03-06T00:18:59.240Z,10.00
2019-03-06T00:21:29.395Z,12.17
2019-03-06T00:23:59.189Z,11.80
2019-03-06T00:26:28.797Z,10.47
2019-03-06T00:28:59.341Z,13.17
2019-03-06T00:31:29.183Z,12.13
2019-03-06T00:33:58.726Z,9.17
2019-03-06T00:36:29.920Z,11.33
2019-03-06T00:38:59.578Z,12.27
2019-03-06T00:41:54.353Z,11.90
2019-03-06T00:44:24.252Z,10.23
2019-03-06T00:46:54.702Z,9.77
2019-03-06T00:49:24.260Z,9.17
2019-03-06T00:51:54.120Z,9.13
2019-03-06T00:54:23.713Z,13.20
2019-03-06T00:56:53.266Z,10.20
2019-03-06T00:59:23.130Z,10.70
2019-03-06T01:01:52.994Z,11.17
2019-03-06T01:04:22.554Z,10.73
2019-03-06T01:06:52.137Z,10.47
2019-03-06T01:09:21.711Z,14.40
2019-03-06T01:11:51.351Z,14.50
2019-03-06T01:14:20.983Z,11.43
2019-03-06T01:16:50.792Z,11.00
2019-03-06T01:19:20.351Z,11.87
2019-03-06T01:21:49.895Z,14.43
2019-03-06T01:24:19.462Z,12.93
2019-03-06T01:26:49.408Z,11.70
2019-03-06T01:29:19.880Z,10.87
2019-03-06T01:31:50.053Z,9.37
2019-03-06T01:34:56.619Z,12.20
2019-03-06T01:37:37.356Z,9.47
2019-03-06T01:40:22.586Z,10.27
2019-03-06T01:43:12.484Z,11.07
2019-03-06T01:45:42.733Z,11.87
2019-03-06T01:48:12.870Z,10.17
2019-03-06T01:50:43.121Z,9.47
2019-03-06T01:53:13.120Z,10.33
2019-03-06T01:55:43.369Z,8.63
2019-03-06T01:58:13.534Z,10.53
2019-03-06T02:00:43.712Z,10.87
2019-03-06T02:03:13.782Z,10.03
2019-03-06T02:05:43.823Z,11.40
2019-03-06T02:08:14.246Z,11.67
2019-03-06T02:10:44.331Z,10.80
2019-03-06T02:13:14.964Z,9.07
2019-03-06T02:15:45.408Z,12.40
2019-03-06T02:18:15.488Z,10.10
2019-03-06T02:20:45.640Z,9.57
2019-03-06T02:23:15.835Z,10.43
2019-03-06T02:25:46.010Z,8.23
2019-03-06T02:28:16.234Z,10.63
2019-03-06T02:30:46.537Z,8.60
2019-03-06T02:33:16.676Z,7.27
2019-03-06T02:35:46.835Z,8.90
2019-03-06T02:38:17.254Z,8.53
2019-03-06T02:40:47.455Z,8.33
2019-03-06T02:43:17.575Z,8.70
2019-03-06T02:45:47.758Z,11.00
2019-03-06T02:48:17.882Z,10.93
2019-03-06T02:50:48.066Z,7.80
2019-03-06T02:53:18.232Z,7.13
2019-03-06T02:55:48.362Z,7.93
2019-03-06T02:58:25.224Z,8.43
2019-03-06T03:01:23.149Z,8.47
2019-03-06T03:04:18.829Z,8.20
2019-03-06T03:06:55.033Z,8.20
2019-03-06T03:09:25.180Z,10.07
2019-03-06T03:11:55.432Z,10.17
2019-03-06T03:14:25.640Z,10.53
2019-03-06T03:16:55.795Z,8.77
2019-03-06T03:19:26.229Z,8.27
2019-03-06T03:21:56.362Z,7.23
2019-03-06T03:24:26.513Z,8.10
2019-03-06T03:26:56.790Z,10.47
2019-03-06T03:29:27.007Z,11.87
2019-03-06T03:31:57.203Z,7.30
2019-03-06T03:34:27.322Z,10.43
2019-03-06T03:36:57.534Z,8.60
2019-03-06T03:39:27.673Z,10.07
2019-03-06T03:41:57.815Z,14.17
2019-03-06T03:44:27.994Z,9.20
2019-03-06T03:46:58.113Z,9.77
2019-03-06T03:49:28.261Z,8.97
2019-03-06T03:51:58.391Z,9.40
2019-03-06T03:54:28.561Z,8.70
2019-03-06T03:56:58.702Z,12.40
2019-03-06T03:59:29.113Z,11.27
2019-03-06T04:01:59.248Z,9.23
2019-03-06T04:04:29.630Z,11.37
2019-03-06T04:06:59.800Z,8.20
2019-03-06T04:09:29.950Z,8.57
2019-03-06T04:12:00.498Z,10.63
2019-03-06T04:14:30.948Z,11.13
2019-03-06T04:17:01.078Z,11.93
2019-03-06T04:19:31.257Z,10.53
2019-03-06T04:22:01.440Z,10.67
2019-03-06T04:24:31.735Z,11.43
2019-03-06T04:27:01.853Z,10.50
2019-03-06T04:29:32.330Z,12.97
2019-03-06T04:32:02.865Z,10.10
2019-03-06T04:34:33.026Z,10.47
2019-03-06T04:37:03.156Z,10.80
2019-03-06T04:39:33.265Z,12.40
2019-03-06T04:42:04.155Z,10.50
2019-03-06T04:44:34.323Z,9.50
2019-03-06T04:47:04.730Z,10.90
2019-03-06T04:49:34.879Z,12.60
2019-03-06T04:52:07.777Z,12.17
2019-03-06T04:54:37.955Z,9.73
2019-03-06T04:57:08.130Z,10.87
2019-03-06T04:59:38.380Z,12.90
2019-03-06T05:02:08.536Z,11.80
2019-03-06T05:04:38.732Z,13.70
2019-03-06T05:07:11.947Z,11.37
2019-03-06T05:09:42.530Z,12.33
2019-03-06T05:12:12.726Z,11.00
2019-03-06T05:14:42.847Z,13.47
2019-03-06T05:17:37.986Z,11.60
2019-03-06T05:20:08.434Z,14.63
2019-03-06T05:22:38.543Z,12.27
2019-03-06T05:25:08.666Z,12.10
2019-03-06T05:27:38.758Z,12.53
2019-03-06T05:30:09.524Z,13.60
2019-03-06T05:32:39.865Z,13.93
2019-03-06T05:35:23.686Z,13.17
2019-03-06T05:38:27.669Z,10.90
2019-03-06T05:40:57.865Z,13.83
2019-03-06T05:43:28.108Z,12.87
2019-03-06T05:45:58.231Z,13.57
2019-03-06T05:48:28.422Z,13.70
2019-03-06T05:50:58.863Z,10.73
2019-03-06T05:53:29.076Z,14.47
2019-03-06T05:55:59.632Z,15.60
2019-03-06T05:58:30.307Z,13.67
2019-03-06T06:01:00.492Z,12.80
2019-03-06T06:03:30.705Z,14.27
2019-03-06T06:06:00.883Z,12.77
2019-03-06T06:08:31.112Z,12.23
2019-03-06T06:11:01.345Z,15.63
2019-03-06T06:13:31.515Z,13.10
2019-03-06T06:16:02.119Z,13.30
2019-03-06T06:18:32.676Z,13.67
2019-03-06T06:21:21.938Z,12.10
2019-03-06T06:23:56.167Z,13.00
2019-03-06T06:26:26.431Z,13.80
2019-03-06T06:28:56.620Z,12.47
2019-03-06T06:31:26.804Z,15.67
2019-03-06T06:33:56.944Z,14.40
2019-03-06T06:36:27.189Z,14.37
2019-03-06T06:38:57.413Z,15.13
2019-03-06T06:41:27.618Z,14.00
2019-03-06T06:43:57.830Z,15.27
2019-03-06T06:46:28.365Z,18.40
2019-03-06T06:48:59.076Z,31.77
2019-03-06T06:52:07.694Z,16.10
2019-03-06T06:55:28.933Z,17.00
2019-03-06T06:58:35.983Z,15.63
2019-03-06T07:02:09.901Z,14.83
2019-03-06T07:05:35.676Z,14.83
2019-03-06T07:08:24.986Z,15.27
2019-03-06T07:11:02.714Z,15.20
2019-03-06T07:13:52.205Z,17.93
2019-03-06T07:16:39.406Z,16.77
2019-03-06T07:19:32.177Z,14.97
2019-03-06T07:22:14.220Z,17.57
2019-03-06T07:25:06.569Z,18.13
2019-03-06T07:27:54.085Z,15.03
2019-03-06T07:30:41.237Z,16.87
2019-03-06T07:33:20.759Z,20.17
2019-03-06T07:36:20.082Z,20.37
2019-03-06T07:38:54.481Z,17.57
2019-03-06T07:41:49.898Z,15.17
2019-03-06T07:44:38.599Z,18.37
2019-03-06T07:47:40.336Z,17.50
2019-03-06T07:50:31.704Z,16.43
2019-03-06T07:54:10.443Z,17.87
2019-03-06T07:56:46.332Z,14.70
2019-03-06T07:59:16.091Z,14.53
2019-03-06T08:01:49.278Z,15.00
2019-03-06T08:04:18.943Z,14.97
2019-03-06T08:06:51.590Z,15.27
2019-03-06T08:09:21.399Z,14.50
2019-03-06T08:12:13.110Z,14.73
2019-03-06T08:15:08.240Z,13.47
2019-03-06T08:18:05.949Z,16.63
2019-03-06T08:20:57.714Z,15.00
2019-03-06T08:23:32.949Z,13.07
2019-03-06T08:26:02.727Z,13.70
2019-03-06T08:28:32.558Z,11.93
2019-03-06T08:31:23.158Z,14.97
2019-03-06T08:33:52.872Z,10.57
2019-03-06T08:36:22.589Z,12.40
2019-03-06T08:38:52.565Z,9.97
2019-03-06T08:41:22.386Z,11.97
2019-03-06T08:43:52.283Z,11.17
2019-03-06T08:46:41.306Z,10.80
2019-03-06T08:49:42.124Z,10.97
2019-03-06T08:52:36.935Z,9.60
2019-03-06T08:55:13.437Z,14.43
2019-03-06T08:58:01.229Z,10.57
2019-03-06T09:00:48.963Z,12.43
2019-03-06T09:03:48.740Z,11.07
2019-03-06T09:06:38.986Z,10.93
2019-03-06T09:09:38.119Z,7.43
2019-03-06T09:12:39.209Z,6.90
2019-03-06T09:15:28.960Z,8.00
2019-03-06T09:18:23.960Z,7.97
2019-03-06T09:21:12.352Z,7.83
2019-03-06T09:24:09.148Z,8.43
2019-03-06T09:26:53.281Z,8.50
2019-03-06T09:29:40.486Z,7.67
2019-03-06T09:32:16.291Z,8.00
2019-03-06T09:35:11.333Z,7.60
2019-03-06T09:37:58.406Z,8.30
2019-03-06T09:40:45.115Z,8.07
2019-03-06T09:43:40.165Z,8.60
2019-03-06T09:46:21.867Z,9.83
2019-03-06T09:49:11.808Z,8.63
2019-03-06T09:52:02.839Z,10.87
2019-03-06T09:54:50.778Z,8.27
2019-03-06T09:57:25.716Z,8.97
2019-03-06T10:00:07.018Z,8.23
2019-03-06T10:02:54.783Z,8.53
2019-03-06T10:05:31.379Z,8.23
2019-03-06T10:08:06.286Z,7.67
2019-03-06T10:10:57.038Z,8.23
2019-03-06T10:13:23.008Z,10.10
2019-03-06T10:15:57.130Z,11.77
2019-03-06T10:18:41.033Z,21.23
2019-03-06T10:21:10.595Z,15.77
2019-03-06T10:23:40.286Z,15.40
2019-03-06T10:26:10.023Z,12.00
2019-03-06T10:28:39.703Z,10.63
2019-03-06T10:31:09.811Z,9.30
2019-03-06T10:33:39.700Z,7.90
2019-03-06T10:36:10.385Z,6.30
2019-03-06T10:38:40.350Z,7.87
2019-03-06T10:41:10.600Z,6.77
2019-03-06T10:43:48.661Z,7.87
2019-03-06T10:46:12.098Z,8.10
2019-03-06T10:48:41.849Z,7.23
2019-03-06T10:51:11.722Z,10.83
2019-03-06T10:56:12.574Z,8.57
2019-03-06T10:58:42.284Z,7.13
2019-03-06T11:01:12.303Z,6.60
2019-03-06T11:03:47.479Z,6.00
2019-03-06T11:06:17.316Z,5.53
2019-03-06T11:08:47.038Z,5.23
2019-03-06T11:11:16.874Z,4.30
2019-03-06T11:13:46.903Z,4.93
2019-03-06T11:16:18.010Z,5.43
2019-03-06T11:18:47.894Z,4.87
2019-03-06T11:21:17.599Z,5.37
2019-03-06T11:23:47.694Z,5.83
2019-03-06T11:26:17.266Z,5.77
2019-03-06T11:28:47.238Z,5.63
2019-03-06T11:31:17.018Z,6.20
2019-03-06T11:33:46.690Z,5.60
2019-03-06T11:36:16.596Z,5.73
2019-03-06T11:38:48.372Z,6.13
2019-03-06T11:41:18.173Z,5.40
2019-03-06T11:43:48.034Z,5.77
2019-03-06T11:46:18.043Z,4.43
2019-03-06T11:48:47.680Z,5.20
2019-03-06T11:51:18.303Z,5.23
2019-03-06T11:53:48.159Z,6.90
2019-03-06T11:56:18.022Z,5.20
2019-03-06T11:58:48.512Z,5.30
2019-03-06T12:01:21.184Z,6.73
2019-03-06T12:03:51.266Z,4.53
2019-03-06T12:06:21.193Z,4.40
2019-03-06T12:08:51.041Z,6.03
2019-03-06T12:11:21.217Z,4.90
2019-03-06T12:13:51.465Z,6.40
2019-03-06T12:16:21.086Z,4.33
2019-03-06T12:18:50.835Z,5.10
2019-03-06T12:21:21.040Z,5.33
2019-03-06T12:23:51.072Z,4.67
2019-03-06T12:26:21.071Z,4.63
2019-03-06T12:28:50.808Z,5.77
2019-03-06T12:31:20.457Z,4.33
2019-03-06T12:33:50.215Z,5.00
2019-03-06T12:36:20.190Z,3.17
2019-03-06T12:38:49.833Z,3.53
2019-03-06T12:41:19.755Z,3.63
2019-03-06T12:43:50.945Z,3.20
2019-03-06T12:46:24.084Z,4.07
2019-03-06T12:49:01.465Z,3.50
2019-03-06T12:51:32.244Z,3.20
2019-03-06T12:54:01.929Z,5.27
2019-03-06T12:56:31.838Z,3.00
2019-03-06T12:59:01.659Z,2.77
2019-03-06T13:01:33.075Z,2.60
2019-03-06T13:04:02.967Z,3.60
2019-03-06T13:06:32.684Z,3.40
2019-03-06T13:09:02.416Z,3.07
2019-03-06T13:11:33.630Z,4.20
2019-03-06T13:14:03.506Z,3.67
2019-03-06T13:16:33.200Z,3.20
2019-03-06T13:19:03.203Z,4.77
2019-03-06T13:21:33.098Z,3.23
2019-03-06T13:24:02.828Z,2.53
2019-03-06T13:26:32.559Z,3.27
2019-03-06T13:29:02.130Z,5.30
2019-03-06T13:31:32.689Z,4.00
2019-03-06T13:34:07.555Z,5.30
2019-03-06T13:36:37.560Z,4.80
2019-03-06T13:39:08.368Z,5.63
2019-03-06T13:41:39.921Z,3.23
2019-03-06T13:44:09.987Z,3.93
2019-03-06T13:46:40.360Z,3.43
2019-03-06T13:49:10.117Z,2.60
2019-03-06T13:51:39.758Z,5.70
2019-03-06T13:54:09.781Z,5.10
2019-03-06T13:56:39.558Z,4.13
2019-03-06T13:59:09.522Z,3.20
2019-03-06T14:01:39.308Z,4.63
2019-03-06T14:04:09.778Z,3.67
2019-03-06T14:06:39.426Z,3.23
2019-03-06T14:09:09.649Z,2.90
2019-03-06T14:11:40.787Z,3.20
2019-03-06T14:14:10.922Z,5.73
2019-03-06T14:16:41.759Z,3.03
2019-03-06T14:19:11.743Z,3.53
2019-03-06T14:21:41.719Z,2.90
2019-03-06T14:24:11.383Z,4.03
2019-03-06T14:26:41.472Z,3.77
2019-03-06T14:29:11.114Z,3.00
2019-03-06T14:31:41.023Z,2.40
2019-03-06T14:34:10.734Z,2.50
2019-03-06T14:36:40.490Z,5.80
2019-03-06T14:39:24.302Z,2.60
2019-03-06T14:41:54.290Z,4.90
2019-03-06T14:44:23.921Z,5.30
2019-03-06T14:46:53.809Z,4.07
2019-03-06T14:49:24.507Z,2.80
2019-03-06T14:51:54.698Z,2.60
2019-03-06T14:54:24.407Z,2.73
2019-03-06T14:56:54.147Z,2.50
2019-03-06T14:59:24.114Z,2.60
2019-03-06T15:01:54.099Z,3.40
2019-03-06T15:04:23.753Z,8.93
2019-03-06T15:06:53.617Z,7.40
2019-03-06T15:09:28.186Z,5.33
2019-03-06T15:11:58.431Z,7.63
2019-03-06T15:14:35.824Z,10.27
2019-03-06T15:16:59.859Z,9.40
2019-03-06T15:19:29.794Z,8.57
2019-03-06T15:21:59.475Z,9.10
2019-03-06T15:24:29.063Z,8.47
2019-03-06T15:26:58.943Z,5.43
2019-03-06T15:29:28.688Z,6.77
2019-03-06T15:31:58.770Z,6.17
2019-03-06T15:34:28.486Z,6.73
2019-03-06T15:36:58.079Z,3.03
2019-03-06T15:39:42.651Z,3.40
2019-03-06T15:42:10.456Z,2.00
2019-03-06T15:44:40.117Z,13.53
2019-03-06T15:47:09.793Z,3.53
2019-03-06T15:49:39.723Z,4.97
2019-03-06T15:52:09.667Z,2.03
2019-03-06T15:54:39.307Z,5.40
2019-03-06T15:57:10.199Z,1.90
2019-03-06T15:59:39.875Z,10.27
2019-03-06T16:02:09.941Z,6.23
2019-03-06T16:04:40.318Z,9.60
2019-03-06T16:07:09.929Z,6.63
2019-03-06T16:09:39.862Z,4.33
2019-03-06T16:12:12.112Z,2.97
2019-03-06T16:14:41.724Z,5.63
2019-03-06T16:17:12.136Z,5.00
2019-03-06T16:19:42.008Z,4.23
2019-03-06T16:22:12.056Z,3.03
2019-03-06T16:24:41.935Z,2.63
2019-03-06T16:27:11.714Z,2.13
2019-03-06T16:29:41.408Z,4.17
2019-03-06T16:32:11.374Z,1.80
2019-03-06T16:34:41.327Z,2.37
2019-03-06T16:37:11.554Z,4.93
2019-03-06T16:39:41.672Z,4.63
2019-03-06T16:42:11.834Z,6.27
2019-03-06T16:44:41.708Z,44.53
2019-03-06T16:47:11.620Z,14.67
2019-03-06T16:49:41.882Z,7.50
2019-03-06T16:52:12.827Z,5.30
2019-03-06T16:54:42.863Z,2.83
2019-03-06T16:57:12.503Z,6.30
2019-03-06T16:59:42.690Z,3.03
2019-03-06T17:02:12.536Z,3.40
2019-03-06T17:04:42.162Z,2.73
2019-03-06T17:07:11.762Z,3.07
2019-03-06T17:09:41.946Z,4.07
2019-03-06T17:12:11.728Z,3.63
2019-03-06T17:14:41.732Z,3.13
2019-03-06T17:17:11.618Z,3.00
2019-03-06T17:19:41.562Z,2.43
2019-03-06T17:22:11.755Z,2.60
2019-03-06T17:24:41.378Z,3.30
2019-03-06T17:27:10.982Z,4.10
2019-03-06T17:29:41.214Z,4.63
2019-03-06T17:32:10.836Z,3.77
2019-03-06T17:34:40.713Z,4.53
2019-03-06T17:37:10.284Z,3.60
2019-03-06T17:39:40.059Z,3.50
2019-03-06T17:42:09.699Z,4.00
2019-03-06T17:44:39.468Z,4.70
2019-03-06T17:47:09.088Z,3.60
2019-03-06T17:49:39.148Z,5.10
2019-03-06T17:52:13.065Z,3.37
2019-03-06T17:54:43.039Z,3.17
2019-03-06T17:57:12.782Z,20.80
2019-03-06T17:59:43.322Z,4.67
2019-03-06T18:02:13.338Z,6.13
2019-03-06T18:04:42.942Z,5.27
2019-03-06T18:07:12.630Z,5.07
2019-03-06T18:09:42.418Z,3.27
2019-03-06T18:12:12.166Z,5.03
2019-03-06T18:14:42.233Z,4.37
2019-03-06T18:17:12.074Z,4.07
2019-03-06T18:19:41.678Z,4.63
2019-03-06T18:22:11.638Z,13.70
2019-03-06T18:24:41.814Z,6.23
2019-03-06T18:27:11.830Z,7.30
2019-03-06T18:29:41.800Z,5.20
2019-03-06T18:32:11.553Z,4.03
2019-03-06T18:34:41.386Z,6.60
2019-03-06T18:37:11.647Z,4.23
2019-03-06T18:39:41.663Z,4.53
2019-03-06T18:42:11.466Z,6.70
2019-03-06T18:44:41.103Z,5.17
2019-03-06T18:47:11.076Z,7.80
2019-03-06T18:49:40.707Z,5.90
2019-03-06T18:52:10.599Z,4.97
2019-03-06T18:54:40.391Z,6.07
2019-03-06T18:57:13.334Z,6.90
2019-03-06T18:59:42.787Z,8.23
2019-03-06T19:02:12.766Z,12.20
2019-03-06T19:04:42.614Z,8.50
2019-03-06T19:07:12.623Z,5.50
2019-03-06T19:09:42.175Z,5.80
2019-03-06T19:12:11.819Z,4.13
2019-03-06T19:14:42.534Z,5.83
2019-03-06T19:17:12.546Z,4.80
2019-03-06T19:19:42.232Z,8.47
2019-03-06T19:22:11.880Z,7.97
2019-03-06T19:24:41.610Z,8.37
2019-03-06T19:27:11.254Z,7.73
2019-03-06T19:29:40.914Z,4.90
2019-03-06T19:32:10.540Z,5.57
2019-03-06T19:34:41.218Z,12.23
2019-03-06T19:37:10.920Z,6.90
2019-03-06T19:39:40.490Z,18.03
2019-03-06T19:42:11.184Z,6.47
2019-03-06T19:44:41.002Z,7.20
2019-03-06T19:47:11.335Z,4.50
2019-03-06T19:49:41.797Z,4.67
2019-03-06T19:52:11.545Z,6.40
2019-03-06T19:54:41.527Z,8.57
2019-03-06T19:57:12.222Z,4.77
2019-03-06T19:59:42.236Z,7.77
2019-03-06T20:02:11.907Z,5.93
2019-03-06T20:04:41.611Z,7.10
2019-03-06T20:07:11.326Z,6.13
2019-03-06T20:09:41.381Z,6.80
2019-03-06T20:12:11.377Z,9.83
2019-03-06T20:14:41.369Z,27.03
2019-03-06T20:17:11.117Z,9.63
2019-03-06T20:19:41.181Z,6.40
2019-03-06T20:22:11.152Z,9.93
2019-03-06T20:24:40.967Z,10.20
2019-03-06T20:27:11.614Z,7.77
2019-03-06T20:29:45.437Z,16.00
2019-03-06T20:32:15.435Z,9.63
2019-03-06T20:34:45.322Z,5.90
2019-03-06T20:37:15.317Z,6.03
2019-03-06T20:39:45.871Z,13.50
2019-03-06T20:42:15.973Z,6.93
2019-03-06T20:44:46.018Z,13.13
2019-03-06T20:47:15.637Z,5.27
2019-03-06T20:49:45.833Z,4.53
2019-03-06T20:52:15.410Z,14.43
2019-03-06T20:54:45.002Z,10.27
2019-03-06T20:57:14.606Z,6.63
2019-03-06T20:59:44.514Z,8.23
2019-03-06T21:02:14.187Z,6.93
2019-03-06T21:04:43.883Z,7.87
2019-03-06T21:07:14.076Z,5.13
2019-03-06T21:09:43.954Z,7.10
2019-03-06T21:12:13.690Z,6.43
2019-03-06T21:14:43.702Z,5.03
2019-03-06T21:17:13.404Z,10.63
2019-03-06T21:19:43.055Z,6.00
2019-03-06T21:22:12.718Z,5.23
2019-03-06T21:24:42.375Z,11.30
2019-03-06T21:27:11.913Z,4.90
2019-03-06T21:29:41.600Z,5.30
2019-03-06T21:32:11.213Z,4.93
2019-03-06T21:34:41.113Z,5.63
2019-03-06T21:37:10.844Z,4.17
2019-03-06T21:39:40.426Z,5.03
2019-03-06T21:42:10.035Z,4.77
2019-03-06T21:44:39.962Z,4.30
2019-03-06T21:47:09.636Z,5.67
2019-03-06T21:49:39.613Z,7.07
2019-03-06T21:52:09.816Z,6.87
2019-03-06T21:54:39.807Z,5.00
2019-03-06T21:57:10.001Z,7.33
2019-03-06T21:59:39.919Z,5.10
2019-03-06T22:02:09.611Z,5.70
2019-03-06T22:04:41.105Z,11.00
2019-03-06T22:07:10.858Z,5.97
2019-03-06T22:09:40.508Z,4.27
2019-03-06T22:12:10.442Z,7.10
2019-03-06T22:14:40.109Z,4.37
2019-03-06T22:17:10.729Z,3.70
2019-03-06T22:19:40.418Z,9.53
2019-03-06T22:22:10.626Z,3.90
2019-03-06T22:24:40.281Z,4.80
2019-03-06T22:27:11.238Z,7.20
2019-03-06T22:29:41.368Z,6.20
2019-03-06T22:32:11.196Z,5.30
2019-03-06T22:34:40.830Z,5.07
2019-03-06T22:37:10.426Z,4.57
2019-03-06T22:39:40.008Z,4.33
2019-03-06T22:42:09.773Z,5.87
2019-03-06T22:44:39.366Z,7.87
2019-03-06T22:47:09.272Z,5.33
2019-03-06T22:49:39.341Z,5.53
2019-03-06T22:52:09.078Z,4.27
2019-03-06T22:54:40.083Z,3.60
2019-03-06T22:57:09.875Z,3.50
2019-03-06T22:59:39.842Z,3.77
2019-03-06T23:02:10.072Z,16.00
2019-03-06T23:04:39.946Z,5.77
2019-03-06T23:07:09.598Z,4.63
2019-03-06T23:09:39.273Z,5.10
2019-03-06T23:12:10.165Z,4.23
2019-03-06T23:14:39.819Z,6.00
2019-03-06T23:17:09.893Z,4.43
2019-03-06T23:19:39.727Z,7.10
2019-03-06T23:22:09.349Z,6.50
2019-03-06T23:24:39.215Z,6.90
2019-03-06T23:27:08.944Z,18.27
2019-03-06T23:29:38.609Z,7.50
2019-03-06T23:32:08.650Z,3.23
2019-03-06T23:34:38.355Z,4.23
2019-03-06T23:37:08.134Z,4.60
2019-03-06T23:39:37.882Z,4.47
2019-03-06T23:42:07.531Z,4.97
2019-03-06T23:44:37.242Z,3.50
2019-03-06T23:47:06.831Z,6.03
2019-03-06T23:49:37.098Z,4.13
2019-03-06T23:52:13.149Z,3.60
2019-03-06T23:54:42.929Z,3.30
2019-03-06T23:57:12.760Z,20.47
2019-03-06T23:59:42.413Z,12.40
